Time;durP1;ratioP1;P1;durP2;ratioP2;P2;SDS_P1;SDS_P2;PMS_P1;PMS_P2;Temp;Humidity;BMP_temperature;BMP_pressure;BME280_temperature;BME280_humidity;BME280_pressure;Samples;Min_cycle;Max_cycle;Signal;HPM_P1;HPM_P2
2022/07/25 03:01:04;;;;;;;0.90;0.90;;;24.90;65.10;;;;;;5857940;23;20512;-75
2022/07/25 03:03:31;;;;;;;0.88;0.88;;;24.80;65.30;;;;;;4974433;28;20430;-75
2022/07/25 03:05:57;;;;;;;0.80;0.80;;;24.80;65.30;;;;;;4974330;28;20281;-75
2022/07/25 03:08:24;;;;;;;0.90;0.90;;;24.80;65.20;;;;;;4974902;28;20508;-75
2022/07/25 03:10:51;;;;;;;1.10;1.10;;;24.80;65.30;;;;;;4977790;28;20285;-75
2022/07/25 03:13:17;;;;;;;0.90;0.90;;;24.80;65.30;;;;;;4978197;28;20215;-75
2022/07/25 03:15:44;;;;;;;0.90;0.90;;;24.80;65.20;;;;;;4979490;28;20458;-75
2022/07/25 03:18:12;;;;;;;1.10;1.00;;;24.80;65.30;;;;;;4978050;28;20450;-75
2022/07/25 03:20:39;;;;;;;1.00;1.00;;;24.80;65.40;;;;;;4977970;28;20454;-75
2022/07/25 03:23:05;;;;;;;0.90;0.90;;;24.70;65.60;;;;;;4978784;28;20457;-75
2022/07/25 03:25:32;;;;;;;1.00;1.00;;;24.60;65.70;;;;;;4977842;28;20884;-75
2022/07/25 03:27:59;;;;;;;0.87;0.87;;;24.50;66.00;;;;;;4977886;28;20457;-75
2022/07/25 03:30:26;;;;;;;0.80;0.80;;;24.50;66.20;;;;;;4977788;28;20898;-75
2022/07/25 03:32:53;;;;;;;1.00;1.00;;;24.40;66.40;;;;;;4977789;28;20450;-75
2022/07/25 03:35:21;;;;;;;2.00;1.07;;;24.40;66.50;;;;;;4977800;28;20210;-75
2022/07/25 03:37:48;;;;;;;1.37;1.27;;;24.40;66.50;;;;;;4977677;28;20449;-75
2022/07/25 03:40:15;;;;;;;1.10;1.10;;;24.30;66.60;;;;;;4977664;28;20450;-75
2022/07/25 03:42:41;;;;;;;1.00;1.00;;;24.30;66.70;;;;;;4977563;28;20584;-75
2022/07/25 03:45:09;;;;;;;1.30;1.20;;;24.30;66.80;;;;;;4977580;28;20497;-75
2022/07/25 03:47:36;;;;;;;1.00;1.00;;;24.20;67.10;;;;;;4977517;28;20485;-75
2022/07/25 03:50:03;;;;;;;0.90;0.90;;;24.10;67.30;;;;;;4977220;28;20941;-75
2022/07/25 03:52:31;;;;;;;0.83;0.83;;;24.10;67.20;;;;;;4977388;28;20533;-75
2022/07/25 03:54:58;;;;;;;0.90;0.90;;;24.10;67.30;;;;;;4977375;28;20504;-75
2022/07/25 03:57:25;;;;;;;0.90;0.90;;;24.10;67.40;;;;;;4977371;28;20441;-75
2022/07/25 03:59:51;;;;;;;1.03;1.03;;;24.00;67.50;;;;;;4977291;28;20471;-75
2022/07/25 04:02:18;;;;;;;1.00;1.00;;;24.00;67.60;;;;;;4976834;28;20481;-75
2022/07/25 04:04:45;;;;;;;1.00;1.00;;;24.00;67.50;;;;;;4977236;28;20207;-75
2022/07/25 04:07:12;;;;;;;1.10;1.10;;;24.10;67.30;;;;;;4977124;28;20485;-75
2022/07/25 04:09:41;;;;;;;0.90;0.90;;;24.10;67.30;;;;;;4977096;28;20450;-75
2022/07/25 04:12:07;;;;;;;1.00;1.00;;;24.10;67.60;;;;;;4977007;28;20473;-75
2022/07/25 04:14:34;;;;;;;1.00;1.00;;;24.10;67.40;;;;;;4977049;28;20450;-75
2022/07/25 04:17:01;;;;;;;0.90;0.90;;;24.00;67.60;;;;;;4977007;28;20504;-75
2022/07/25 04:19:27;;;;;;;1.00;1.00;;;24.00;67.70;;;;;;4976937;28;20500;-75
2022/07/25 04:21:54;;;;;;;1.00;1.00;;;24.00;67.60;;;;;;4976078;28;20226;-75
2022/07/25 04:24:21;;;;;;;1.07;1.03;;;24.00;67.50;;;;;;4976862;28;20871;-75
2022/07/25 04:26:49;;;;;;;0.90;0.90;;;23.90;67.60;;;;;;4976709;28;20552;-75
2022/07/25 04:29:15;;;;;;;1.20;1.10;;;23.80;67.90;;;;;;4976440;28;20876;-75
2022/07/25 04:31:42;;;;;;;0.90;0.90;;;23.80;68.00;;;;;;4976329;28;20823;-75
2022/07/25 04:34:09;;;;;;;1.10;1.10;;;23.90;68.20;;;;;;4976626;28;20458;-75
2022/07/25 04:36:35;;;;;;;0.98;0.98;;;24.00;68.20;;;;;;4976332;28;20203;-75
2022/07/25 04:39:02;;;;;;;0.80;0.80;;;24.10;67.50;;;;;;4976263;28;20629;-75
2022/07/25 04:41:29;;;;;;;0.90;0.90;;;24.20;67.20;;;;;;4976527;28;20231;-75
2022/07/25 04:43:57;;;;;;;0.90;0.90;;;24.20;67.10;;;;;;4976527;28;20490;-75
2022/07/25 04:46:24;;;;;;;0.80;0.80;;;24.30;67.10;;;;;;4976102;28;20485;-75
2022/07/25 04:48:51;;;;;;;1.07;1.07;;;24.30;67.00;;;;;;4976359;28;20442;-75
2022/07/25 04:51:19;;;;;;;0.83;0.83;;;24.30;66.80;;;;;;4976295;28;20465;-75
2022/07/25 04:53:45;;;;;;;1.13;1.00;;;24.40;66.90;;;;;;4976390;28;20856;-75
2022/07/25 04:56:12;;;;;;;0.97;0.97;;;24.50;66.70;;;;;;4975978;28;21000;-75
2022/07/25 04:58:39;;;;;;;1.00;1.00;;;24.60;66.50;;;;;;4976240;28;20446;-75
2022/07/25 05:01:07;;;;;;;1.00;1.00;;;24.70;66.10;;;;;;4975951;28;20509;-75
2022/07/25 05:03:34;;;;;;;0.80;0.80;;;24.70;66.00;;;;;;4976214;28;20430;-75
2022/07/25 05:06:00;;;;;;;1.07;1.00;;;24.80;66.20;;;;;;4976046;28;20843;-75
2022/07/25 05:08:27;;;;;;;1.03;1.03;;;25.00;65.80;;;;;;4975800;28;21011;-75
2022/07/25 05:10:54;;;;;;;2.40;1.27;;;25.20;65.30;;;;;;4975918;28;20465;-75
2022/07/25 05:13:20;;;;;;;1.10;1.07;;;25.20;65.20;;;;;;4975939;28;20457;-75
2022/07/25 05:15:47;;;;;;;0.90;0.90;;;25.20;64.70;;;;;;4975925;28;20454;-75
2022/07/25 05:18:15;;;;;;;0.87;0.87;;;25.30;65.00;;;;;;4975872;28;20449;-75
2022/07/25 05:20:42;;;;;;;1.10;1.00;;;25.30;64.70;;;;;;4975729;28;20457;-75
2022/07/25 05:23:08;;;;;;;0.90;0.90;;;25.40;64.30;;;;;;4975762;28;20567;-75
2022/07/25 05:25:35;;;;;;;0.90;0.90;;;25.30;64.90;;;;;;4975711;28;20446;-75
2022/07/25 05:28:02;;;;;;;1.27;1.23;;;25.40;64.30;;;;;;4975309;28;20735;-75
2022/07/25 05:30:29;;;;;;;0.90;0.90;;;25.50;64.30;;;;;;4975455;28;20876;-75
2022/07/25 05:32:55;;;;;;;1.00;1.00;;;25.50;64.00;;;;;;4975515;28;20541;-75
2022/07/25 05:35:23;;;;;;;1.10;1.10;;;25.30;64.50;;;;;;4975211;28;20450;-75
2022/07/25 05:37:50;;;;;;;1.00;1.00;;;25.30;64.90;;;;;;4975215;28;20446;-75
2022/07/25 05:40:18;;;;;;;1.37;0.90;;;25.10;65.10;;;;;;4975434;28;20446;-75
2022/07/25 05:42:45;;;;;;;1.00;1.00;;;25.10;65.80;;;;;;4975318;28;20466;-75
2022/07/25 05:45:11;;;;;;;1.33;1.10;;;25.30;64.90;;;;;;4975366;28;20457;-75
2022/07/25 05:47:38;;;;;;;0.80;0.80;;;25.60;65.10;;;;;;4974887;28;20910;-75
2022/07/25 05:50:05;;;;;;;1.77;0.90;;;25.70;64.10;;;;;;4975692;28;20462;-75
2022/07/25 05:52:33;;;;;;;0.90;0.90;;;26.00;63.40;;;;;;4975104;28;20470;-75
2022/07/25 05:55:00;;;;;;;1.00;1.00;;;26.10;63.00;;;;;;4975086;28;20446;-75
2022/07/25 05:57:27;;;;;;;0.90;0.90;;;26.20;62.90;;;;;;4975122;28;20203;-75
2022/07/25 05:59:54;;;;;;;0.93;0.93;;;26.50;62.20;;;;;;4974793;28;21041;-75
2022/07/25 06:02:20;;;;;;;0.87;0.87;;;26.70;61.50;;;;;;4974646;28;20545;-75
2022/07/25 06:04:47;;;;;;;2.70;0.93;;;26.90;62.10;;;;;;4974979;28;20684;-75
2022/07/25 06:07:13;;;;;;;1.10;1.10;;;26.90;60.70;;;;;;4974913;28;20536;-75
2022/07/25 06:09:41;;;;;;;0.90;0.90;;;26.90;60.80;;;;;;4974914;28;20454;-75
2022/07/25 06:12:08;;;;;;;0.80;0.80;;;26.90;61.40;;;;;;4974886;28;20470;-75
2022/07/25 06:14:35;;;;;;;1.00;1.00;;;27.00;61.50;;;;;;4974832;28;20257;-75
2022/07/25 06:17:01;;;;;;;1.00;1.00;;;26.80;62.20;;;;;;4974830;28;20469;-75
2022/07/25 06:19:29;;;;;;;1.00;1.00;;;26.90;61.90;;;;;;4974802;28;20509;-75
2022/07/25 06:21:55;;;;;;;0.80;0.80;;;27.20;61.30;;;;;;4974398;28;20942;-75
2022/07/25 06:24:22;;;;;;;1.33;0.90;;;27.20;60.60;;;;;;4974393;28;21004;-75
2022/07/25 06:26:50;;;;;;;1.00;1.00;;;27.50;61.30;;;;;;4974589;28;20222;-75
2022/07/25 06:29:16;;;;;;;0.90;0.90;;;27.40;59.70;;;;;;4974368;28;20828;-75
2022/07/25 06:31:43;;;;;;;1.00;0.90;;;27.60;60.20;;;;;;4974290;28;20899;-75
2022/07/25 06:34:10;;;;;;;1.40;1.00;;;27.60;59.80;;;;;;4974337;28;20945;-75
2022/07/25 06:36:36;;;;;;;0.90;0.90;;;27.60;60.00;;;;;;4974306;28;20983;-75
2022/07/25 06:39:03;;;;;;;0.80;0.80;;;27.70;60.10;;;;;;4974610;28;20452;-75
2022/07/25 06:41:30;;;;;;;1.00;1.00;;;27.90;58.10;;;;;;4974484;28;20470;-75
2022/07/25 06:43:58;;;;;;;1.08;1.08;;;28.00;58.50;;;;;;4974132;28;20450;-75
2022/07/25 06:46:28;;;;;;;0.90;0.90;;;28.20;58.50;;;;;;4974582;28;20258;-75
2022/07/25 06:48:55;;;;;;;0.87;0.87;;;28.40;58.80;;;;;;4974473;28;20470;-75
2022/07/25 06:51:22;;;;;;;0.83;0.83;;;28.60;59.30;;;;;;4974765;28;20469;-76
2022/07/25 06:53:49;;;;;;;0.90;0.80;;;28.60;56.50;;;;;;4974172;28;20831;-76
2022/07/25 06:56:15;;;;;;;0.87;0.87;;;28.70;57.10;;;;;;4974444;28;20496;-76
2022/07/25 06:58:42;;;;;;;0.90;0.90;;;28.60;57.20;;;;;;4974399;28;20446;-75
2022/07/25 07:01:10;;;;;;;0.80;0.80;;;28.70;58.30;;;;;;4974169;28;20540;-75
2022/07/25 07:03:38;;;;;;;0.83;0.83;;;28.80;58.00;;;;;;4974439;28;20430;-75
2022/07/25 07:06:06;;;;;;;1.10;1.00;;;28.90;58.30;;;;;;4974333;28;20493;-75
2022/07/25 07:08:32;;;;;;;0.80;0.80;;;29.00;58.00;;;;;;4974269;28;20486;-75
2022/07/25 07:11:00;;;;;;;0.80;0.80;;;29.30;58.10;;;;;;4974254;28;20473;-75
2022/07/25 07:13:27;;;;;;;0.87;0.87;;;29.50;58.40;;;;;;4974373;28;20219;-75
2022/07/25 07:15:54;;;;;;;0.90;0.90;;;29.50;56.80;;;;;;4973958;28;20873;-75
2022/07/25 07:18:22;;;;;;;0.90;0.90;;;29.50;56.90;;;;;;4974471;28;20449;-75
2022/07/25 07:20:50;;;;;;;0.90;0.90;;;29.60;56.90;;;;;;4974183;28;20884;-75
2022/07/25 07:23:17;;;;;;;0.90;0.90;;;29.80;57.50;;;;;;4974199;28;20454;-75
2022/07/25 07:25:45;;;;;;;1.10;1.10;;;29.90;57.00;;;;;;4973874;28;20827;-75
2022/07/25 07:28:12;;;;;;;1.07;1.07;;;29.70;56.80;;;;;;4974092;28;20573;-75
2022/07/25 07:30:39;;;;;;;0.93;0.93;;;29.70;56.90;;;;;;4974066;28;20497;-75
2022/07/25 07:33:05;;;;;;;1.00;0.87;;;29.50;58.60;;;;;;4974133;28;20207;-75
2022/07/25 07:35:33;;;;;;;1.10;1.00;;;29.70;58.60;;;;;;4974095;28;20450;-75
2022/07/25 07:38:00;;;;;;;1.20;1.10;;;29.80;57.70;;;;;;4974066;28;20450;-76
2022/07/25 07:40:27;;;;;;;0.80;0.80;;;29.90;57.70;;;;;;4973973;28;20213;-75
2022/07/25 07:42:55;;;;;;;1.20;0.90;;;30.10;57.10;;;;;;4974048;28;20458;-76
2022/07/25 07:45:24;;;;;;;0.93;0.93;;;30.50;58.00;;;;;;4973698;28;20968;-76
2022/07/25 07:47:52;;;;;;;1.10;1.10;;;30.70;56.00;;;;;;4973713;28;20474;-75
2022/07/25 07:50:22;;;;;;;0.80;0.80;;;30.90;55.30;;;;;;4973997;28;20445;-76
2022/07/25 07:52:52;;;;;;;0.90;0.90;;;31.10;55.00;;;;;;4973951;28;20497;-75
2022/07/25 07:58:03;;;;;;;1.00;1.00;;;31.10;55.20;;;;;;4977478;28;20453;-76
2022/07/25 08:00:31;;;;;;;2.37;1.00;;;31.20;54.60;;;;;;4976947;28;20616;-75
2022/07/25 08:02:59;;;;;;;0.90;0.90;;;31.40;53.50;;;;;;4976875;28;20472;-75
2022/07/25 08:05:27;;;;;;;0.90;0.90;;;31.70;54.20;;;;;;4977239;28;20454;-76
2022/07/25 08:07:55;;;;;;;0.80;0.80;;;31.80;54.20;;;;;;4977135;28;20478;-76
2022/07/25 08:10:24;;;;;;;0.90;0.90;;;32.20;54.20;;;;;;4976797;28;20938;-76
2022/07/25 08:12:51;;;;;;;0.80;0.80;;;32.20;51.60;;;;;;4977107;28;20520;-76
2022/07/25 08:15:18;;;;;;;0.90;0.90;;;32.10;52.20;;;;;;4977054;28;20217;-76
2022/07/25 08:17:45;;;;;;;0.90;0.90;;;32.20;52.40;;;;;;4977022;28;20448;-76
2022/07/25 08:20:13;;;;;;;0.80;0.80;;;32.50;51.30;;;;;;4976989;28;20824;-76
2022/07/25 08:22:40;;;;;;;0.83;0.83;;;32.50;53.10;;;;;;4976903;28;20520;-76
2022/07/25 08:25:10;;;;;;;0.93;0.93;;;32.40;51.90;;;;;;4976824;28;20500;-76
2022/07/25 08:27:37;;;;;;;0.80;0.80;;;32.30;51.80;;;;;;4976785;28;20478;-76
2022/07/25 08:30:05;;;;;;;1.00;1.00;;;32.40;50.80;;;;;;4976778;28;20509;-76
2022/07/25 08:32:32;;;;;;;2.37;1.60;;;32.30;50.50;;;;;;4976691;28;20466;-76
2022/07/25 08:35:00;;;;;;;0.90;0.90;;;32.30;50.70;;;;;;4976738;28;20882;-76
2022/07/25 08:37:27;;;;;;;1.67;0.90;;;32.20;50.60;;;;;;4976370;28;20838;-76
2022/07/25 08:39:54;;;;;;;0.80;0.80;;;32.00;49.90;;;;;;4976634;28;20453;-76
2022/07/25 08:42:22;;;;;;;0.90;0.90;;;31.70;50.60;;;;;;4976516;28;20525;-76
2022/07/25 08:44:55;;;;;;;0.80;0.80;;;31.80;52.30;;;;;;4976560;28;20880;-76
2022/07/25 08:47:22;;;;;;;0.90;0.90;;;31.90;51.40;;;;;;4976195;28;20974;-75
2022/07/25 08:49:49;;;;;;;0.97;0.97;;;31.70;51.00;;;;;;4976449;28;20505;-76
2022/07/25 08:52:17;;;;;;;0.90;0.90;;;31.60;50.80;;;;;;4976339;28;20520;-76
2022/07/25 08:54:46;;;;;;;0.83;0.83;;;31.80;50.50;;;;;;4976010;28;20261;-76
2022/07/25 08:57:13;;;;;;;1.00;0.90;;;32.00;50.50;;;;;;4976271;28;20532;-76
2022/07/25 08:59:41;;;;;;;1.23;1.23;;;32.20;50.10;;;;;;4975928;28;20937;-76
2022/07/25 09:02:09;;;;;;;0.90;0.90;;;32.50;50.50;;;;;;4975793;28;20502;-76
2022/07/25 09:04:37;;;;;;;0.90;0.90;;;32.70;47.60;;;;;;4976197;28;20501;-76
2022/07/25 09:07:04;;;;;;;0.87;0.87;;;32.70;48.10;;;;;;4975518;28;20827;-76
2022/07/25 09:09:32;;;;;;;0.70;0.70;;;32.40;49.30;;;;;;4975998;28;20541;-76
2022/07/25 09:11:59;;;;;;;0.80;0.80;;;32.40;49.00;;;;;;4975968;28;20520;-76
2022/07/25 09:14:28;;;;;;;0.88;0.88;;;32.40;48.60;;;;;;4976866;28;20870;-76
2022/07/25 09:16:56;;;;;;;0.97;0.87;;;32.60;50.10;;;;;;4975926;28;20203;-76
2022/07/25 09:19:25;;;;;;;0.80;0.80;;;33.00;47.90;;;;;;4975878;28;20442;-76
2022/07/25 09:22:01;;;;;;;0.87;0.87;;;33.30;46.40;;;;;;4975787;28;20560;-76
2022/07/25 09:24:29;;;;;;;0.90;0.90;;;33.50;47.40;;;;;;4975785;28;20453;-76
2022/07/25 09:26:58;;;;;;;0.90;0.90;;;33.80;45.50;;;;;;4975726;28;20457;-76
2022/07/25 09:29:29;;;;;;;0.90;0.90;;;33.90;45.80;;;;;;4975616;28;20488;-76
2022/07/25 09:31:59;;;;;;;1.33;0.80;;;34.20;45.90;;;;;;4975660;28;20477;-76
2022/07/25 09:34:35;;;;;;;0.77;0.77;;;34.30;46.80;;;;;;4975578;28;20450;-76
2022/07/25 09:37:02;;;;;;;0.80;0.80;;;34.50;45.70;;;;;;4975649;28;20579;-76
2022/07/25 09:39:42;;;;;;;0.80;0.80;;;34.60;44.70;;;;;;4975498;28;20457;-76
2022/07/25 09:42:21;;;;;;;0.93;0.90;;;34.80;46.20;;;;;;4975392;28;20477;-76
2022/07/25 09:45:02;;;;;;;0.80;0.80;;;35.00;44.80;;;;;;4975485;28;20441;-76
2022/07/25 09:47:31;;;;;;;0.87;0.87;;;35.20;45.70;;;;;;4975351;28;20503;-76
2022/07/25 09:49:58;;;;;;;0.90;0.90;;;35.40;44.30;;;;;;4975281;28;20453;-76
2022/07/25 09:52:25;;;;;;;0.90;0.90;;;35.20;44.40;;;;;;4975218;28;20466;-77
2022/07/25 09:54:53;;;;;;;0.70;0.70;;;35.30;44.60;;;;;;4974906;28;20450;-76
2022/07/25 09:57:20;;;;;;;0.83;0.83;;;35.60;44.60;;;;;;4975255;28;20500;-76
2022/07/25 09:59:47;;;;;;;0.80;0.80;;;35.50;43.40;;;;;;4975194;28;20452;-76
2022/07/25 10:02:24;;;;;;;1.37;0.83;;;35.30;43.70;;;;;;4974786;28;20477;-76
2022/07/25 10:05:04;;;;;;;1.07;0.80;;;35.20;44.90;;;;;;4975085;28;20492;-76
2022/07/25 10:07:32;;;;;;;1.00;0.90;;;35.10;44.50;;;;;;4975078;28;20430;-76
2022/07/25 10:10:00;;;;;;;0.87;0.87;;;34.80;44.90;;;;;;4974607;28;20493;-76
2022/07/25 10:12:26;;;;;;;0.80;0.80;;;34.70;45.80;;;;;;4974605;28;20893;-76
2022/07/25 10:15:09;;;;;;;1.90;0.90;;;35.10;46.10;;;;;;4974935;28;20454;-76
2022/07/25 10:17:37;;;;;;;0.80;0.80;;;35.30;44.00;;;;;;4974722;28;20496;-77
2022/07/25 10:20:08;;;;;;;0.80;0.73;;;35.30;43.70;;;;;;4974477;28;20454;-76
2022/07/25 10:22:43;;;;;;;0.80;0.80;;;34.70;45.60;;;;;;4974843;28;20489;-74
2022/07/25 10:25:13;;;;;;;0.80;0.80;;;34.90;44.60;;;;;;4974806;28;20433;-74
2022/07/25 10:27:47;;;;;;;0.80;0.80;;;35.20;44.20;;;;;;4974738;28;20504;-74
2022/07/25 10:30:22;;;;;;;0.83;0.83;;;35.40;43.90;;;;;;4974772;28;20469;-74
2022/07/25 10:32:57;;;;;;;0.70;0.70;;;35.60;43.60;;;;;;4974782;28;20441;-74
2022/07/25 10:35:25;;;;;;;0.80;0.80;;;35.90;43.10;;;;;;4974716;28;20512;-74
2022/07/25 10:37:53;;;;;;;0.80;0.80;;;35.90;43.50;;;;;;4974667;28;20453;-74
2022/07/25 10:40:32;;;;;;;0.80;0.80;;;36.20;41.40;;;;;;4974635;28;20500;-74
2022/07/25 10:43:06;;;;;;;0.70;0.70;;;36.40;42.70;;;;;;4974630;28;20433;-74
2022/07/25 10:45:38;;;;;;;0.70;0.70;;;36.60;39.70;;;;;;4974649;28;20456;-74
2022/07/25 10:48:08;;;;;;;0.70;0.60;;;36.60;38.60;;;;;;4974562;28;20540;-74
2022/07/25 10:50:46;;;;;;;0.70;0.60;;;36.70;38.20;;;;;;4974519;28;20545;-74
2022/07/25 10:53:13;;;;;;;0.83;0.70;;;36.80;39.10;;;;;;4974567;28;20523;-74
2022/07/25 10:55:40;;;;;;;0.70;0.60;;;36.90;35.80;;;;;;4974489;28;20449;-73
2022/07/25 10:58:06;;;;;;;0.70;0.70;;;36.70;37.20;;;;;;4974468;28;20520;-73
2022/07/25 11:00:33;;;;;;;0.70;0.70;;;36.40;37.60;;;;;;4974405;28;20861;-74
2022/07/25 11:03:00;;;;;;;0.80;0.70;;;36.50;38.00;;;;;;4973975;28;20911;-75
2022/07/25 11:05:28;;;;;;;0.70;0.70;;;36.50;37.20;;;;;;4974405;28;20455;-74
2022/07/25 11:07:56;;;;;;;0.80;0.60;;;36.80;37.00;;;;;;4974867;28;20482;-74
2022/07/25 11:10:27;;;;;;;0.70;0.70;;;37.00;36.00;;;;;;4974214;28;20495;-74
2022/07/25 11:12:55;;;;;;;0.70;0.60;;;37.10;37.10;;;;;;4974005;28;20733;-74
2022/07/25 11:15:23;;;;;;;0.67;0.60;;;37.30;36.30;;;;;;4974324;28;20536;-75
2022/07/25 11:17:51;;;;;;;0.70;0.70;;;37.20;36.80;;;;;;4974284;28;20508;-74
2022/07/25 11:20:18;;;;;;;0.73;0.60;;;37.10;35.90;;;;;;4974301;28;20812;-75
2022/07/25 11:22:52;;;;;;;0.70;0.60;;;37.00;36.10;;;;;;4974177;28;20477;-74
2022/07/25 11:25:22;;;;;;;1.13;0.70;;;37.10;35.60;;;;;;4974156;28;20520;-74
2022/07/25 11:27:55;;;;;;;0.70;0.60;;;37.20;37.40;;;;;;4974207;28;20477;-74
2022/07/25 11:30:22;;;;;;;0.70;0.63;;;37.20;35.50;;;;;;4976163;28;20563;-74
2022/07/25 11:32:50;;;;;;;0.70;0.70;;;36.90;36.00;;;;;;4977906;28;20449;-74
2022/07/25 11:35:21;;;;;;;0.70;0.70;;;36.80;35.70;;;;;;4977475;28;20449;-75
2022/07/25 11:37:49;;;;;;;1.13;0.60;;;36.70;36.40;;;;;;4977785;28;20257;-75
2022/07/25 11:40:17;;;;;;;0.70;0.60;;;36.80;36.00;;;;;;4977905;28;20445;-76
2022/07/25 11:42:47;;;;;;;0.70;0.60;;;37.00;36.10;;;;;;4977892;28;20536;-76
2022/07/25 11:45:19;;;;;;;0.70;0.70;;;37.20;36.80;;;;;;4977584;28;20557;-79
2022/07/25 11:47:47;;;;;;;0.70;0.67;;;37.50;36.10;;;;;;4977694;28;20865;-78
2022/07/25 11:50:14;;;;;;;0.97;0.60;;;37.60;36.20;;;;;;4977229;28;21062;-78
2022/07/25 11:52:42;;;;;;;0.70;0.60;;;37.40;34.90;;;;;;4977461;28;20465;-79
2022/07/25 11:55:12;;;;;;;0.83;0.60;;;36.90;36.00;;;;;;4977566;28;20536;-78
2022/07/25 11:57:43;;;;;;;0.80;0.70;;;37.00;37.40;;;;;;4977643;28;20453;-79
2022/07/25 12:00:17;;;;;;;0.80;0.60;;;37.30;36.20;;;;;;4977525;28;20566;-78
2022/07/25 12:02:45;;;;;;;0.70;0.70;;;37.30;36.50;;;;;;4977328;28;20476;-78
2022/07/25 12:05:13;;;;;;;0.70;0.60;;;37.60;36.60;;;;;;4977298;28;20511;-76
2022/07/25 12:07:43;;;;;;;0.70;0.60;;;37.60;36.20;;;;;;4977023;28;20493;-76
2022/07/25 12:10:14;;;;;;;0.70;0.60;;;37.60;35.50;;;;;;4977198;28;20579;-77
2022/07/25 12:12:47;;;;;;;0.82;0.65;;;37.60;35.70;;;;;;4976829;28;20524;-76
2022/07/25 12:15:17;;;;;;;0.70;0.70;;;37.70;35.20;;;;;;4977165;28;20194;-77
2022/07/25 12:17:44;;;;;;;0.70;0.60;;;37.70;35.00;;;;;;4977097;28;20433;-76
2022/07/25 12:20:15;;;;;;;0.70;0.63;;;37.50;35.30;;;;;;4976995;28;20445;-76
2022/07/25 12:22:43;;;;;;;0.70;0.70;;;37.30;35.80;;;;;;4976994;28;20860;-76
2022/07/25 12:25:10;;;;;;;0.70;0.67;;;37.00;36.20;;;;;;4976931;28;20457;-76
2022/07/25 12:27:37;;;;;;;0.70;0.70;;;37.10;37.00;;;;;;4976633;28;20960;-76
2022/07/25 12:30:05;;;;;;;0.70;0.60;;;37.40;35.90;;;;;;4976765;28;20516;-76
2022/07/25 12:32:34;;;;;;;0.70;0.63;;;37.60;35.70;;;;;;4976725;28;20811;-77
2022/07/25 12:35:01;;;;;;;0.70;0.70;;;37.40;35.50;;;;;;4976744;28;20445;-76
2022/07/25 12:37:27;;;;;;;0.70;0.70;;;37.50;35.90;;;;;;4976710;28;20449;-76
2022/07/25 12:39:55;;;;;;;0.70;0.60;;;37.90;37.20;;;;;;4976645;28;20445;-77
2022/07/25 12:42:21;;;;;;;0.70;0.70;;;38.10;35.50;;;;;;4975891;28;20466;-77
2022/07/25 12:44:48;;;;;;;0.80;0.60;;;37.70;35.00;;;;;;4976557;28;20500;-76
2022/07/25 12:47:15;;;;;;;0.70;0.67;;;37.40;35.00;;;;;;4976498;28;20450;-76
2022/07/25 12:49:43;;;;;;;0.70;0.60;;;37.20;35.40;;;;;;4976386;28;20489;-75
2022/07/25 12:52:10;;;;;;;0.70;0.60;;;37.30;37.50;;;;;;4976349;28;20293;-76
2022/07/25 12:54:36;;;;;;;0.80;0.60;;;37.40;35.90;;;;;;4976054;28;20862;-76
2022/07/25 12:57:03;;;;;;;0.70;0.60;;;37.20;35.10;;;;;;4976305;28;20864;-76
2022/07/25 12:59:30;;;;;;;0.70;0.67;;;36.90;36.00;;;;;;4975952;28;20825;-76
2022/07/25 13:01:57;;;;;;;0.70;0.60;;;36.80;36.70;;;;;;4975688;28;20997;-76
2022/07/25 13:04:24;;;;;;;0.70;0.60;;;36.60;37.20;;;;;;4975895;28;20934;-76
2022/07/25 13:06:52;;;;;;;0.80;0.80;;;36.70;37.60;;;;;;4976225;28;20460;-76
2022/07/25 13:09:19;;;;;;;0.70;0.63;;;36.70;37.60;;;;;;4976080;28;20516;-76
2022/07/25 13:11:46;;;;;;;0.70;0.60;;;36.80;37.60;;;;;;4976000;28;20469;-76
2022/07/25 13:14:14;;;;;;;0.70;0.60;;;36.90;36.90;;;;;;4976013;28;20578;-76
2022/07/25 13:16:41;;;;;;;0.90;0.80;;;36.70;37.80;;;;;;4975964;28;20449;-76
2022/07/25 13:19:08;;;;;;;0.70;0.60;;;36.90;37.30;;;;;;4975914;28;20790;-76
2022/07/25 13:21:35;;;;;;;0.70;0.70;;;37.10;37.60;;;;;;4975814;28;20478;-76
2022/07/25 13:24:04;;;;;;;0.70;0.70;;;37.30;36.80;;;;;;4975829;28;20453;-77
2022/07/25 13:26:31;;;;;;;0.70;0.70;;;37.40;37.10;;;;;;4975722;28;20445;-76
2022/07/25 13:28:58;;;;;;;0.70;0.70;;;37.40;35.90;;;;;;4975360;28;20858;-76
2022/07/25 13:31:24;;;;;;;0.80;0.80;;;37.40;36.10;;;;;;4975622;28;20469;-76
2022/07/25 13:33:51;;;;;;;0.80;0.60;;;37.50;35.80;;;;;;4975687;28;20445;-77
2022/07/25 13:36:18;;;;;;;0.70;0.70;;;37.60;36.80;;;;;;4975621;28;20536;-76
2022/07/25 13:38:46;;;;;;;0.70;0.70;;;37.30;37.20;;;;;;4975546;28;20449;-76
2022/07/25 13:41:14;;;;;;;0.70;0.70;;;37.30;36.30;;;;;;4975463;28;20495;-76
2022/07/25 13:43:41;;;;;;;0.70;0.60;;;37.20;36.60;;;;;;4975486;28;20457;-76
2022/07/25 13:46:08;;;;;;;0.80;0.80;;;36.90;37.50;;;;;;4975445;28;20536;-76
2022/07/25 13:48:35;;;;;;;0.70;0.70;;;37.00;38.30;;;;;;4975330;28;20449;-76
2022/07/25 13:51:02;;;;;;;0.80;0.70;;;37.00;38.00;;;;;;4975191;28;20543;-76
2022/07/25 13:53:29;;;;;;;0.70;0.70;;;36.90;37.70;;;;;;4974432;28;20449;-76
2022/07/25 13:55:56;;;;;;;0.73;0.73;;;37.00;39.20;;;;;;4974851;28;20445;-76
2022/07/25 13:58:25;;;;;;;0.80;0.77;;;36.70;38.00;;;;;;4975176;28;20301;-76
2022/07/25 14:00:52;;;;;;;0.70;0.70;;;36.50;38.70;;;;;;4974835;28;20470;-77
2022/07/25 14:03:18;;;;;;;0.77;0.77;;;36.50;40.60;;;;;;4975188;28;20429;-76
2022/07/25 14:05:45;;;;;;;0.80;0.80;;;36.40;39.90;;;;;;4974725;28;20874;-76
2022/07/25 14:08:12;;;;;;;0.83;0.83;;;36.30;38.90;;;;;;4974990;28;20476;-76
2022/07/25 14:10:38;;;;;;;0.80;0.80;;;36.20;39.00;;;;;;4974871;28;20544;-76
2022/07/25 14:13:05;;;;;;;0.80;0.80;;;36.10;39.40;;;;;;4974956;28;20453;-76
2022/07/25 14:15:33;;;;;;;0.80;0.80;;;36.00;38.50;;;;;;4975009;28;20330;-76
2022/07/25 14:18:00;;;;;;;1.47;0.70;;;35.70;40.20;;;;;;4974906;28;20446;-76
2022/07/25 14:20:26;;;;;;;0.80;0.70;;;35.70;40.20;;;;;;4974909;28;20445;-76
2022/07/25 14:22:54;;;;;;;0.97;0.87;;;35.60;39.40;;;;;;4974947;28;20899;-76
2022/07/25 14:25:21;;;;;;;0.80;0.80;;;35.50;39.80;;;;;;4974627;28;20453;-76
2022/07/25 14:27:48;;;;;;;0.77;0.77;;;35.60;40.70;;;;;;4974746;28;20449;-76
2022/07/25 14:30:14;;;;;;;1.00;0.80;;;35.60;40.20;;;;;;4974526;28;20908;-76
2022/07/25 14:32:43;;;;;;;1.63;0.87;;;35.60;40.90;;;;;;4974307;28;20980;-76
2022/07/25 14:35:10;;;;;;;0.80;0.80;;;35.80;40.70;;;;;;4974367;28;20847;-76
2022/07/25 14:37:37;;;;;;;0.90;0.70;;;35.80;40.60;;;;;;4974677;28;20453;-76
2022/07/25 14:40:05;;;;;;;0.80;0.80;;;35.90;40.50;;;;;;4974353;28;20669;-76
2022/07/25 14:42:32;;;;;;;1.33;0.80;;;36.00;41.60;;;;;;4974473;28;20473;-76
2022/07/25 14:44:58;;;;;;;0.70;0.70;;;36.00;40.40;;;;;;4974564;28;20496;-76
2022/07/25 14:47:25;;;;;;;0.80;0.80;;;36.10;40.60;;;;;;4974675;28;20456;-76
2022/07/25 14:49:53;;;;;;;0.80;0.80;;;36.30;40.90;;;;;;4974476;28;20609;-76
2022/07/25 14:52:20;;;;;;;0.73;0.73;;;36.60;41.90;;;;;;4974500;28;20273;-76
2022/07/25 14:54:46;;;;;;;0.80;0.80;;;36.70;39.60;;;;;;4974546;28;20446;-76
2022/07/25 14:57:13;;;;;;;0.80;0.80;;;36.70;39.50;;;;;;4974505;28;20449;-76
2022/07/25 14:59:40;;;;;;;0.90;0.90;;;36.50;39.80;;;;;;4974157;28;20453;-76
2022/07/25 15:02:06;;;;;;;0.80;0.80;;;36.50;40.00;;;;;;4973913;28;20653;-76
2022/07/25 15:04:33;;;;;;;0.93;0.90;;;36.30;40.30;;;;;;4975164;28;20453;-76
2022/07/25 15:07:01;;;;;;;0.97;0.87;;;36.10;40.30;;;;;;4978226;28;20567;-75
2022/07/25 15:09:28;;;;;;;0.80;0.80;;;35.80;40.30;;;;;;4978221;28;20931;-76
2022/07/25 15:11:55;;;;;;;0.80;0.80;;;35.80;40.90;;;;;;4978093;28;20473;-76
2022/07/25 15:14:21;;;;;;;0.70;0.70;;;35.70;41.10;;;;;;5003186;23;20495;-73
2022/07/25 15:16:48;;;;;;;0.80;0.70;;;35.70;41.00;;;;;;4977644;28;20504;-71
2022/07/25 15:19:15;;;;;;;0.77;0.77;;;36.00;41.20;;;;;;4978121;28;20496;-72
2022/07/25 15:21:41;;;;;;;0.80;0.80;;;36.20;40.20;;;;;;4978087;28;20210;-72
2022/07/25 15:24:09;;;;;;;0.98;0.98;;;36.50;40.00;;;;;;4978028;28;20445;-73
2022/07/25 15:26:36;;;;;;;0.90;0.80;;;36.70;39.90;;;;;;4977929;28;20230;-72
2022/07/25 15:29:06;;;;;;;0.70;0.70;;;36.70;40.20;;;;;;4977992;28;20863;-71
2022/07/25 15:31:33;;;;;;;0.70;0.70;;;36.80;40.20;;;;;;4977547;28;20631;-71
2022/07/25 15:33:59;;;;;;;0.77;0.77;;;37.20;40.60;;;;;;4977559;28;21004;-73
2022/07/25 15:36:26;;;;;;;0.70;0.70;;;37.30;39.60;;;;;;4977825;28;20547;-72
2022/07/25 15:38:53;;;;;;;0.80;0.80;;;37.30;39.30;;;;;;4977785;28;20492;-72
2022/07/25 15:41:21;;;;;;;0.80;0.80;;;37.20;39.50;;;;;;4977729;28;20447;-72
2022/07/25 15:43:48;;;;;;;0.80;0.80;;;37.20;39.00;;;;;;4978537;28;20453;-73
2022/07/25 15:46:15;;;;;;;0.77;0.77;;;37.10;39.40;;;;;;4977604;28;20469;-73
2022/07/25 15:48:43;;;;;;;0.80;0.80;;;37.10;40.20;;;;;;4977630;28;20438;-73
2022/07/25 15:51:10;;;;;;;0.90;0.80;;;37.00;41.30;;;;;;4977219;28;21004;-73
2022/07/25 15:53:36;;;;;;;0.80;0.80;;;36.70;42.00;;;;;;4977236;28;20808;-73